sensor_id;sensor_type;location;lat;lon;timestamp;temperature;humidity
10411;DHT22;5251;52.112;8.606;2024-03-29T00:00:41;10.20;90.40
10411;DHT22;5251;52.112;8.606;2024-03-29T00:03:08;10.20;90.40
10411;DHT22;5251;52.112;8.606;2024-03-29T00:05:34;10.20;90.40
10411;DHT22;5251;52.112;8.606;2024-03-29T00:08:00;10.20;90.40
10411;DHT22;5251;52.112;8.606;2024-03-29T00:10:25;10.10;90.40
10411;DHT22;5251;52.112;8.606;2024-03-29T00:12:51;10.10;90.40
10411;DHT22;5251;52.112;8.606;2024-03-29T00:15:17;10.20;90.50
10411;DHT22;5251;52.112;8.606;2024-03-29T00:17:42;10.10;90.40
10411;DHT22;5251;52.112;8.606;2024-03-29T00:20:08;10.10;90.40
10411;DHT22;5251;52.112;8.606;2024-03-29T00:22:34;10.10;90.40
10411;DHT22;5251;52.112;8.606;2024-03-29T00:25:00;10.00;90.40
10411;DHT22;5251;52.112;8.606;2024-03-29T00:27:26;10.00;90.40
10411;DHT22;5251;52.112;8.606;2024-03-29T00:29:53;10.00;90.40
10411;DHT22;5251;52.112;8.606;2024-03-29T00:32:20;10.00;90.40
10411;DHT22;5251;52.112;8.606;2024-03-29T00:34:45;10.00;90.40
10411;DHT22;5251;52.112;8.606;2024-03-29T00:37:14;10.00;90.40
10411;DHT22;5251;52.112;8.606;2024-03-29T00:39:39;10.00;90.30
10411;DHT22;5251;52.112;8.606;2024-03-29T00:42:05;9.90;90.80
10411;DHT22;5251;52.112;8.606;2024-03-29T00:44:36;9.90;90.90
10411;DHT22;5251;52.112;8.606;2024-03-29T00:47:04;9.90;90.90
10411;DHT22;5251;52.112;8.606;2024-03-29T00:49:29;9.90;90.90
10411;DHT22;5251;52.112;8.606;2024-03-29T00:51:55;9.90;90.90
10411;DHT22;5251;52.112;8.606;2024-03-29T00:54:21;9.90;91.00
10411;DHT22;5251;52.112;8.606;2024-03-29T00:56:49;9.90;91.00
10411;DHT22;5251;52.112;8.606;2024-03-29T00:59:15;9.90;90.90
10411;DHT22;5251;52.112;8.606;2024-03-29T01:01:40;9.80;91.00
10411;DHT22;5251;52.112;8.606;2024-03-29T01:04:06;9.80;90.80
10411;DHT22;5251;52.112;8.606;2024-03-29T01:06:31;9.80;90.80
10411;DHT22;5251;52.112;8.606;2024-03-29T01:08:57;9.80;90.80
10411;DHT22;5251;52.112;8.606;2024-03-29T01:11:23;9.80;90.80
10411;DHT22;5251;52.112;8.606;2024-03-29T01:13:49;9.80;90.90
10411;DHT22;5251;52.112;8.606;2024-03-29T01:16:14;9.80;90.80
10411;DHT22;5251;52.112;8.606;2024-03-29T01:18:40;9.80;90.80
10411;DHT22;5251;52.112;8.606;2024-03-29T01:21:09;9.80;90.80
10411;DHT22;5251;52.112;8.606;2024-03-29T01:23:34;9.80;91.10
10411;DHT22;5251;52.112;8.606;2024-03-29T01:26:00;9.80;90.80
10411;DHT22;5251;52.112;8.606;2024-03-29T01:28:26;9.80;90.80
10411;DHT22;5251;52.112;8.606;2024-03-29T01:30:52;9.70;90.80
10411;DHT22;5251;52.112;8.606;2024-03-29T01:33:18;9.70;90.80
10411;DHT22;5251;52.112;8.606;2024-03-29T01:35:44;9.70;90.80
10411;DHT22;5251;52.112;8.606;2024-03-29T01:38:09;9.70;90.90
10411;DHT22;5251;52.112;8.606;2024-03-29T01:40:35;9.70;90.80
10411;DHT22;5251;52.112;8.606;2024-03-29T01:43:01;9.70;90.70
10411;DHT22;5251;52.112;8.606;2024-03-29T01:45:27;9.70;90.70
10411;DHT22;5251;52.112;8.606;2024-03-29T01:47:53;9.60;90.70
10411;DHT22;5251;52.112;8.606;2024-03-29T01:50:19;9.60;90.70
10411;DHT22;5251;52.112;8.606;2024-03-29T01:52:46;9.70;90.70
10411;DHT22;5251;52.112;8.606;2024-03-29T01:55:12;9.60;90.70
10411;DHT22;5251;52.112;8.606;2024-03-29T01:57:37;9.60;90.50
10411;DHT22;5251;52.112;8.606;2024-03-29T02:00:05;9.60;90.40
10411;DHT22;5251;52.112;8.606;2024-03-29T02:02:32;9.60;90.40
10411;DHT22;5251;52.112;8.606;2024-03-29T02:04:58;9.60;90.30
10411;DHT22;5251;52.112;8.606;2024-03-29T02:07:25;9.60;90.30
10411;DHT22;5251;52.112;8.606;2024-03-29T02:09:51;9.60;90.30
10411;DHT22;5251;52.112;8.606;2024-03-29T02:12:17;9.60;90.30
10411;DHT22;5251;52.112;8.606;2024-03-29T02:14:43;9.60;90.30
10411;DHT22;5251;52.112;8.606;2024-03-29T02:17:09;9.60;90.40
10411;DHT22;5251;52.112;8.606;2024-03-29T02:19:34;9.60;90.40
10411;DHT22;5251;52.112;8.606;2024-03-29T02:22:01;9.60;90.40
10411;DHT22;5251;52.112;8.606;2024-03-29T02:24:30;9.50;90.30
10411;DHT22;5251;52.112;8.606;2024-03-29T02:26:56;9.50;90.30
10411;DHT22;5251;52.112;8.606;2024-03-29T02:29:23;9.50;90.40
10411;DHT22;5251;52.112;8.606;2024-03-29T02:31:49;9.50;90.40
10411;DHT22;5251;52.112;8.606;2024-03-29T02:34:14;9.50;90.40
10411;DHT22;5251;52.112;8.606;2024-03-29T02:36:40;9.50;90.40
10411;DHT22;5251;52.112;8.606;2024-03-29T02:39:09;9.50;90.40
10411;DHT22;5251;52.112;8.606;2024-03-29T02:41:35;9.50;90.50
10411;DHT22;5251;52.112;8.606;2024-03-29T02:44:00;9.50;90.50
10411;DHT22;5251;52.112;8.606;2024-03-29T02:46:26;9.40;90.60
10411;DHT22;5251;52.112;8.606;2024-03-29T02:48:52;9.50;90.60
10411;DHT22;5251;52.112;8.606;2024-03-29T02:51:18;9.50;90.70
10411;DHT22;5251;52.112;8.606;2024-03-29T02:53:43;9.50;90.70
10411;DHT22;5251;52.112;8.606;2024-03-29T02:56:09;9.50;90.70
10411;DHT22;5251;52.112;8.606;2024-03-29T02:58:35;9.50;90.70
10411;DHT22;5251;52.112;8.606;2024-03-29T03:01:08;9.50;90.70
10411;DHT22;5251;52.112;8.606;2024-03-29T03:03:34;9.50;90.70
10411;DHT22;5251;52.112;8.606;2024-03-29T03:06:00;9.50;90.70
10411;DHT22;5251;52.112;8.606;2024-03-29T03:08:25;9.60;90.80
10411;DHT22;5251;52.112;8.606;2024-03-29T03:11:09;9.60;90.70
10411;DHT22;5251;52.112;8.606;2024-03-29T03:13:35;9.60;90.70
10411;DHT22;5251;52.112;8.606;2024-03-29T03:16:01;9.60;90.70
10411;DHT22;5251;52.112;8.606;2024-03-29T03:18:26;9.60;90.70
10411;DHT22;5251;52.112;8.606;2024-03-29T03:20:55;9.70;90.70
10411;DHT22;5251;52.112;8.606;2024-03-29T03:23:23;9.70;90.70
10411;DHT22;5251;52.112;8.606;2024-03-29T03:26:00;9.70;90.70
10411;DHT22;5251;52.112;8.606;2024-03-29T03:28:26;9.80;90.80
10411;DHT22;5251;52.112;8.606;2024-03-29T03:30:53;9.80;90.80
10411;DHT22;5251;52.112;8.606;2024-03-29T03:33:19;9.80;90.80
10411;DHT22;5251;52.112;8.606;2024-03-29T03:35:45;9.90;90.80
10411;DHT22;5251;52.112;8.606;2024-03-29T03:38:11;9.90;90.70
10411;DHT22;5251;52.112;8.606;2024-03-29T03:40:37;9.90;90.60
10411;DHT22;5251;52.112;8.606;2024-03-29T03:43:03;10.00;90.10
10411;DHT22;5251;52.112;8.606;2024-03-29T03:45:34;10.00;90.20
10411;DHT22;5251;52.112;8.606;2024-03-29T03:48:04;10.00;90.00
10411;DHT22;5251;52.112;8.606;2024-03-29T03:50:30;10.10;90.00
10411;DHT22;5251;52.112;8.606;2024-03-29T03:52:56;10.10;90.10
10411;DHT22;5251;52.112;8.606;2024-03-29T03:55:22;10.10;90.10
10411;DHT22;5251;52.112;8.606;2024-03-29T03:57:47;10.20;90.10
10411;DHT22;5251;52.112;8.606;2024-03-29T04:00:13;10.20;90.10
10411;DHT22;5251;52.112;8.606;2024-03-29T04:02:39;10.20;90.10
10411;DHT22;5251;52.112;8.606;2024-03-29T04:05:06;10.20;90.00
10411;DHT22;5251;52.112;8.606;2024-03-29T04:07:32;10.30;89.90
10411;DHT22;5251;52.112;8.606;2024-03-29T04:09:57;10.30;90.00
10411;DHT22;5251;52.112;8.606;2024-03-29T04:12:23;10.40;90.00
10411;DHT22;5251;52.112;8.606;2024-03-29T04:14:48;10.40;89.90
10411;DHT22;5251;52.112;8.606;2024-03-29T04:17:14;10.40;90.00
10411;DHT22;5251;52.112;8.606;2024-03-29T04:19:40;10.40;90.00
10411;DHT22;5251;52.112;8.606;2024-03-29T04:22:05;10.50;89.90
10411;DHT22;5251;52.112;8.606;2024-03-29T04:24:31;10.50;89.50
10411;DHT22;5251;52.112;8.606;2024-03-29T04:26:57;10.50;89.50
10411;DHT22;5251;52.112;8.606;2024-03-29T04:29:22;10.60;89.90
10411;DHT22;5251;52.112;8.606;2024-03-29T04:31:48;10.60;89.60
10411;DHT22;5251;52.112;8.606;2024-03-29T04:34:14;10.60;89.10
10411;DHT22;5251;52.112;8.606;2024-03-29T04:36:40;10.70;89.90
10411;DHT22;5251;52.112;8.606;2024-03-29T04:39:06;10.70;90.30
10411;DHT22;5251;52.112;8.606;2024-03-29T04:41:32;10.70;90.70
10411;DHT22;5251;52.112;8.606;2024-03-29T04:44:01;10.80;91.00
10411;DHT22;5251;52.112;8.606;2024-03-29T04:46:30;10.80;91.20
10411;DHT22;5251;52.112;8.606;2024-03-29T04:48:55;10.90;91.30
10411;DHT22;5251;52.112;8.606;2024-03-29T04:51:21;10.90;91.40
10411;DHT22;5251;52.112;8.606;2024-03-29T04:53:47;10.90;91.60
10411;DHT22;5251;52.112;8.606;2024-03-29T04:56:12;11.00;91.80
10411;DHT22;5251;52.112;8.606;2024-03-29T04:58:38;11.00;91.90
10411;DHT22;5251;52.112;8.606;2024-03-29T05:01:04;11.00;92.20
10411;DHT22;5251;52.112;8.606;2024-03-29T05:03:29;11.10;92.20
10411;DHT22;5251;52.112;8.606;2024-03-29T05:05:56;11.10;92.40
10411;DHT22;5251;52.112;8.606;2024-03-29T05:08:21;11.10;92.40
10411;DHT22;5251;52.112;8.606;2024-03-29T05:10:48;11.10;92.60
10411;DHT22;5251;52.112;8.606;2024-03-29T05:13:15;11.10;92.60
10411;DHT22;5251;52.112;8.606;2024-03-29T05:15:41;11.20;92.70
10411;DHT22;5251;52.112;8.606;2024-03-29T05:18:07;11.20;92.70
10411;DHT22;5251;52.112;8.606;2024-03-29T05:20:32;11.20;92.80
10411;DHT22;5251;52.112;8.606;2024-03-29T05:22:58;11.30;92.80
10411;DHT22;5251;52.112;8.606;2024-03-29T05:25:24;11.20;92.80
10411;DHT22;5251;52.112;8.606;2024-03-29T05:27:50;11.30;92.80
10411;DHT22;5251;52.112;8.606;2024-03-29T05:30:16;11.30;92.80
10411;DHT22;5251;52.112;8.606;2024-03-29T05:32:42;11.30;92.90
10411;DHT22;5251;52.112;8.606;2024-03-29T05:35:08;11.30;92.80
10411;DHT22;5251;52.112;8.606;2024-03-29T05:37:35;11.30;92.80
10411;DHT22;5251;52.112;8.606;2024-03-29T05:40:01;11.30;93.00
10411;DHT22;5251;52.112;8.606;2024-03-29T05:42:31;11.30;93.00
10411;DHT22;5251;52.112;8.606;2024-03-29T05:44:57;11.30;93.00
10411;DHT22;5251;52.112;8.606;2024-03-29T05:47:22;11.30;93.10
10411;DHT22;5251;52.112;8.606;2024-03-29T05:49:48;11.30;93.10
10411;DHT22;5251;52.112;8.606;2024-03-29T05:52:14;11.30;93.20
10411;DHT22;5251;52.112;8.606;2024-03-29T05:54:41;11.30;93.30
10411;DHT22;5251;52.112;8.606;2024-03-29T05:57:07;11.30;93.40
10411;DHT22;5251;52.112;8.606;2024-03-29T05:59:33;11.30;93.60
10411;DHT22;5251;52.112;8.606;2024-03-29T06:01:59;11.30;93.60
10411;DHT22;5251;52.112;8.606;2024-03-29T06:04:25;11.30;93.60
10411;DHT22;5251;52.112;8.606;2024-03-29T06:07:04;11.30;93.60
10411;DHT22;5251;52.112;8.606;2024-03-29T06:09:30;11.30;93.60
10411;DHT22;5251;52.112;8.606;2024-03-29T06:11:58;11.30;93.70
10411;DHT22;5251;52.112;8.606;2024-03-29T06:14:24;11.30;93.70
10411;DHT22;5251;52.112;8.606;2024-03-29T06:17:09;11.30;93.80
10411;DHT22;5251;52.112;8.606;2024-03-29T06:19:53;11.30;93.80
10411;DHT22;5251;52.112;8.606;2024-03-29T06:22:23;11.30;93.90
10411;DHT22;5251;52.112;8.606;2024-03-29T06:24:52;11.30;93.90
10411;DHT22;5251;52.112;8.606;2024-03-29T06:27:18;11.30;93.90
10411;DHT22;5251;52.112;8.606;2024-03-29T06:29:46;11.30;94.00
10411;DHT22;5251;52.112;8.606;2024-03-29T06:32:11;11.30;94.10
10411;DHT22;5251;52.112;8.606;2024-03-29T06:34:37;11.30;94.10
10411;DHT22;5251;52.112;8.606;2024-03-29T06:37:03;11.30;94.10
10411;DHT22;5251;52.112;8.606;2024-03-29T06:39:28;11.40;94.20
10411;DHT22;5251;52.112;8.606;2024-03-29T06:41:54;11.30;94.10
10411;DHT22;5251;52.112;8.606;2024-03-29T06:44:20;11.40;94.10
10411;DHT22;5251;52.112;8.606;2024-03-29T06:46:46;11.40;94.10
10411;DHT22;5251;52.112;8.606;2024-03-29T06:49:12;11.40;94.20
10411;DHT22;5251;52.112;8.606;2024-03-29T06:51:39;11.40;94.20
10411;DHT22;5251;52.112;8.606;2024-03-29T06:54:05;11.40;94.20
10411;DHT22;5251;52.112;8.606;2024-03-29T06:56:31;11.40;94.30
10411;DHT22;5251;52.112;8.606;2024-03-29T06:58:57;11.40;94.30
10411;DHT22;5251;52.112;8.606;2024-03-29T07:01:22;11.40;94.30
10411;DHT22;5251;52.112;8.606;2024-03-29T07:03:48;11.40;94.30
10411;DHT22;5251;52.112;8.606;2024-03-29T07:06:13;11.40;94.40
10411;DHT22;5251;52.112;8.606;2024-03-29T07:08:39;11.40;94.50
10411;DHT22;5251;52.112;8.606;2024-03-29T07:11:05;11.40;94.50
10411;DHT22;5251;52.112;8.606;2024-03-29T07:13:31;11.50;94.50
10411;DHT22;5251;52.112;8.606;2024-03-29T07:15:58;11.50;94.50
10411;DHT22;5251;52.112;8.606;2024-03-29T07:18:23;11.50;94.60
10411;DHT22;5251;52.112;8.606;2024-03-29T07:20:49;11.50;94.70
10411;DHT22;5251;52.112;8.606;2024-03-29T07:23:16;11.50;94.80
10411;DHT22;5251;52.112;8.606;2024-03-29T07:25:44;11.50;94.90
10411;DHT22;5251;52.112;8.606;2024-03-29T07:28:10;11.50;94.80
10411;DHT22;5251;52.112;8.606;2024-03-29T07:30:36;11.60;94.60
10411;DHT22;5251;52.112;8.606;2024-03-29T07:33:04;11.60;94.50
10411;DHT22;5251;52.112;8.606;2024-03-29T07:35:29;11.60;94.30
10411;DHT22;5251;52.112;8.606;2024-03-29T07:37:55;11.60;94.10
10411;DHT22;5251;52.112;8.606;2024-03-29T07:40:22;11.70;94.20
10411;DHT22;5251;52.112;8.606;2024-03-29T07:42:48;11.70;94.20
10411;DHT22;5251;52.112;8.606;2024-03-29T07:45:13;11.70;94.30
10411;DHT22;5251;52.112;8.606;2024-03-29T07:47:39;11.70;94.20
10411;DHT22;5251;52.112;8.606;2024-03-29T07:50:05;11.70;94.20
10411;DHT22;5251;52.112;8.606;2024-03-29T07:52:33;11.80;94.20
10411;DHT22;5251;52.112;8.606;2024-03-29T07:54:58;11.80;94.20
10411;DHT22;5251;52.112;8.606;2024-03-29T07:57:25;11.90;94.60
10411;DHT22;5251;52.112;8.606;2024-03-29T07:59:51;11.90;94.60
10411;DHT22;5251;52.112;8.606;2024-03-29T08:02:16;12.00;94.80
10411;DHT22;5251;52.112;8.606;2024-03-29T08:04:42;12.10;94.80
10411;DHT22;5251;52.112;8.606;2024-03-29T08:07:08;12.20;94.70
10411;DHT22;5251;52.112;8.606;2024-03-29T08:09:34;12.30;94.70
10411;DHT22;5251;52.112;8.606;2024-03-29T08:12:00;12.40;94.40
10411;DHT22;5251;52.112;8.606;2024-03-29T08:14:25;12.50;94.40
10411;DHT22;5251;52.112;8.606;2024-03-29T08:16:53;12.60;94.30
10411;DHT22;5251;52.112;8.606;2024-03-29T08:19:19;12.70;94.50
10411;DHT22;5251;52.112;8.606;2024-03-29T08:21:45;12.70;94.30
10411;DHT22;5251;52.112;8.606;2024-03-29T08:24:11;12.80;94.30
10411;DHT22;5251;52.112;8.606;2024-03-29T08:26:36;12.90;94.00
10411;DHT22;5251;52.112;8.606;2024-03-29T08:29:02;12.90;94.20
10411;DHT22;5251;52.112;8.606;2024-03-29T08:31:28;13.00;94.00
10411;DHT22;5251;52.112;8.606;2024-03-29T08:33:54;13.00;93.90
10411;DHT22;5251;52.112;8.606;2024-03-29T08:36:19;13.00;93.80
10411;DHT22;5251;52.112;8.606;2024-03-29T08:38:45;13.00;93.80
10411;DHT22;5251;52.112;8.606;2024-03-29T08:41:12;13.00;94.00
10411;DHT22;5251;52.112;8.606;2024-03-29T08:43:38;13.00;93.90
10411;DHT22;5251;52.112;8.606;2024-03-29T08:46:04;13.00;94.00
10411;DHT22;5251;52.112;8.606;2024-03-29T08:48:29;13.00;94.30
10411;DHT22;5251;52.112;8.606;2024-03-29T08:50:55;13.00;94.40
10411;DHT22;5251;52.112;8.606;2024-03-29T08:53:21;13.00;94.50
10411;DHT22;5251;52.112;8.606;2024-03-29T08:55:51;13.00;94.80
10411;DHT22;5251;52.112;8.606;2024-03-29T08:58:16;13.00;95.00
10411;DHT22;5251;52.112;8.606;2024-03-29T09:00:55;13.00;95.00
10411;DHT22;5251;52.112;8.606;2024-03-29T09:03:24;13.10;94.90
10411;DHT22;5251;52.112;8.606;2024-03-29T09:05:50;13.10;94.80
10411;DHT22;5251;52.112;8.606;2024-03-29T09:08:17;13.10;95.00
10411;DHT22;5251;52.112;8.606;2024-03-29T09:10:43;13.20;94.90
10411;DHT22;5251;52.112;8.606;2024-03-29T09:13:09;13.20;94.80
10411;DHT22;5251;52.112;8.606;2024-03-29T09:15:36;13.20;94.90
10411;DHT22;5251;52.112;8.606;2024-03-29T09:18:02;13.30;95.10
10411;DHT22;5251;52.112;8.606;2024-03-29T09:20:38;13.30;95.20
10411;DHT22;5251;52.112;8.606;2024-03-29T09:23:04;13.40;95.20
10411;DHT22;5251;52.112;8.606;2024-03-29T09:25:30;13.50;95.40
10411;DHT22;5251;52.112;8.606;2024-03-29T09:27:57;13.60;95.00
10411;DHT22;5251;52.112;8.606;2024-03-29T09:30:23;13.70;94.80
10411;DHT22;5251;52.112;8.606;2024-03-29T09:32:48;13.70;94.80
10411;DHT22;5251;52.112;8.606;2024-03-29T09:35:17;13.80;94.60
10411;DHT22;5251;52.112;8.606;2024-03-29T09:37:43;13.80;94.60
10411;DHT22;5251;52.112;8.606;2024-03-29T09:40:11;13.90;94.60
10411;DHT22;5251;52.112;8.606;2024-03-29T09:42:39;13.90;94.50
10411;DHT22;5251;52.112;8.606;2024-03-29T09:45:05;14.00;94.90
10411;DHT22;5251;52.112;8.606;2024-03-29T09:47:32;14.00;95.10
10411;DHT22;5251;52.112;8.606;2024-03-29T09:50:02;14.10;95.00
10411;DHT22;5251;52.112;8.606;2024-03-29T09:52:30;14.20;95.00
10411;DHT22;5251;52.112;8.606;2024-03-29T09:54:56;14.30;95.10
10411;DHT22;5251;52.112;8.606;2024-03-29T09:57:23;14.40;95.20
10411;DHT22;5251;52.112;8.606;2024-03-29T09:59:50;14.50;95.20
10411;DHT22;5251;52.112;8.606;2024-03-29T10:02:16;14.60;95.00
10411;DHT22;5251;52.112;8.606;2024-03-29T10:04:46;14.70;94.80
10411;DHT22;5251;52.112;8.606;2024-03-29T10:07:12;14.80;94.50
10411;DHT22;5251;52.112;8.606;2024-03-29T10:09:39;15.00;94.70
10411;DHT22;5251;52.112;8.606;2024-03-29T10:12:06;15.20;94.80
10411;DHT22;5251;52.112;8.606;2024-03-29T10:14:31;15.30;94.10
10411;DHT22;5251;52.112;8.606;2024-03-29T10:16:58;15.30;93.50
10411;DHT22;5251;52.112;8.606;2024-03-29T10:19:23;15.40;93.90
10411;DHT22;5251;52.112;8.606;2024-03-29T10:21:49;15.50;93.90
10411;DHT22;5251;52.112;8.606;2024-03-29T10:24:15;15.50;93.80
10411;DHT22;5251;52.112;8.606;2024-03-29T10:26:43;15.60;93.80
10411;DHT22;5251;52.112;8.606;2024-03-29T10:29:09;15.70;93.80
10411;DHT22;5251;52.112;8.606;2024-03-29T10:31:36;15.80;93.60
10411;DHT22;5251;52.112;8.606;2024-03-29T10:34:04;15.80;93.50
10411;DHT22;5251;52.112;8.606;2024-03-29T10:36:34;15.90;93.70
10411;DHT22;5251;52.112;8.606;2024-03-29T10:39:11;16.00;93.20
10411;DHT22;5251;52.112;8.606;2024-03-29T10:41:40;16.00;92.80
10411;DHT22;5251;52.112;8.606;2024-03-29T10:44:09;16.10;92.80
10411;DHT22;5251;52.112;8.606;2024-03-29T10:46:37;16.20;92.70
10411;DHT22;5251;52.112;8.606;2024-03-29T10:49:03;16.20;93.00
10411;DHT22;5251;52.112;8.606;2024-03-29T10:51:31;16.20;92.80
10411;DHT22;5251;52.112;8.606;2024-03-29T10:53:57;16.20;93.00
10411;DHT22;5251;52.112;8.606;2024-03-29T10:56:24;16.30;92.80
10411;DHT22;5251;52.112;8.606;2024-03-29T10:58:55;16.30;92.60
10411;DHT22;5251;52.112;8.606;2024-03-29T11:01:22;16.40;92.90
10411;DHT22;5251;52.112;8.606;2024-03-29T11:03:54;16.50;92.50
10411;DHT22;5251;52.112;8.606;2024-03-29T11:06:26;16.50;92.30
10411;DHT22;5251;52.112;8.606;2024-03-29T11:08:55;16.60;92.30
10411;DHT22;5251;52.112;8.606;2024-03-29T11:11:22;16.60;91.90
10411;DHT22;5251;52.112;8.606;2024-03-29T11:14:03;16.60;91.70
10411;DHT22;5251;52.112;8.606;2024-03-29T11:16:31;16.60;92.00
10411;DHT22;5251;52.112;8.606;2024-03-29T11:18:59;16.50;91.80
10411;DHT22;5251;52.112;8.606;2024-03-29T11:21:24;16.50;91.80
10411;DHT22;5251;52.112;8.606;2024-03-29T11:23:54;16.40;91.70
10411;DHT22;5251;52.112;8.606;2024-03-29T11:26:20;16.40;92.20
10411;DHT22;5251;52.112;8.606;2024-03-29T11:28:50;16.40;92.20
10411;DHT22;5251;52.112;8.606;2024-03-29T11:31:16;16.40;92.40
10411;DHT22;5251;52.112;8.606;2024-03-29T11:36:24;16.40;92.60
10411;DHT22;5251;52.112;8.606;2024-03-29T11:38:56;16.50;92.70
10411;DHT22;5251;52.112;8.606;2024-03-29T11:41:27;16.50;92.70
10411;DHT22;5251;52.112;8.606;2024-03-29T11:43:55;16.60;93.00
10411;DHT22;5251;52.112;8.606;2024-03-29T11:46:21;16.80;92.10
10411;DHT22;5251;52.112;8.606;2024-03-29T11:48:47;16.90;91.90
10411;DHT22;5251;52.112;8.606;2024-03-29T11:51:18;16.90;91.60
10411;DHT22;5251;52.112;8.606;2024-03-29T11:53:46;17.00;91.40
10411;DHT22;5251;52.112;8.606;2024-03-29T11:56:12;17.10;91.20
10411;DHT22;5251;52.112;8.606;2024-03-29T11:58:38;17.10;91.30
10411;DHT22;5251;52.112;8.606;2024-03-29T12:01:07;17.10;91.60
10411;DHT22;5251;52.112;8.606;2024-03-29T12:03:38;17.20;91.70
10411;DHT22;5251;52.112;8.606;2024-03-29T12:06:04;17.20;91.30
10411;DHT22;5251;52.112;8.606;2024-03-29T12:08:32;17.30;91.00
10411;DHT22;5251;52.112;8.606;2024-03-29T12:10:59;17.30;90.80
10411;DHT22;5251;52.112;8.606;2024-03-29T12:13:25;17.30;90.80
10411;DHT22;5251;52.112;8.606;2024-03-29T12:15:51;17.20;90.60
10411;DHT22;5251;52.112;8.606;2024-03-29T12:18:19;17.20;91.30
10411;DHT22;5251;52.112;8.606;2024-03-29T12:20:45;17.20;91.30
10411;DHT22;5251;52.112;8.606;2024-03-29T12:23:16;17.20;90.90
10411;DHT22;5251;52.112;8.606;2024-03-29T12:25:42;17.20;90.80
10411;DHT22;5251;52.112;8.606;2024-03-29T12:28:10;17.20;90.80
10411;DHT22;5251;52.112;8.606;2024-03-29T12:30:35;17.20;90.70
10411;DHT22;5251;52.112;8.606;2024-03-29T12:33:05;17.20;90.60
10411;DHT22;5251;52.112;8.606;2024-03-29T12:35:32;17.20;90.70
10411;DHT22;5251;52.112;8.606;2024-03-29T12:38:03;17.20;91.60
10411;DHT22;5251;52.112;8.606;2024-03-29T12:40:30;17.30;91.30
10411;DHT22;5251;52.112;8.606;2024-03-29T12:43:03;17.30;90.90
10411;DHT22;5251;52.112;8.606;2024-03-29T12:45:29;17.40;91.30
10411;DHT22;5251;52.112;8.606;2024-03-29T12:47:54;17.50;90.70
10411;DHT22;5251;52.112;8.606;2024-03-29T12:50:32;17.60;91.00
10411;DHT22;5251;52.112;8.606;2024-03-29T12:53:05;17.60;90.60
10411;DHT22;5251;52.112;8.606;2024-03-29T12:55:31;17.70;90.20
10411;DHT22;5251;52.112;8.606;2024-03-29T12:58:00;17.80;90.70
10411;DHT22;5251;52.112;8.606;2024-03-29T13:00:27;17.80;90.30
10411;DHT22;5251;52.112;8.606;2024-03-29T13:02:53;17.90;90.10
10411;DHT22;5251;52.112;8.606;2024-03-29T13:05:19;17.90;89.80
10411;DHT22;5251;52.112;8.606;2024-03-29T13:07:44;18.00;89.90
10411;DHT22;5251;52.112;8.606;2024-03-29T13:10:10;18.00;90.00
10411;DHT22;5251;52.112;8.606;2024-03-29T13:12:42;18.00;90.40
10411;DHT22;5251;52.112;8.606;2024-03-29T13:15:19;18.00;89.30
10411;DHT22;5251;52.112;8.606;2024-03-29T13:17:47;18.10;89.70
10411;DHT22;5251;52.112;8.606;2024-03-29T13:20:13;18.00;89.30
10411;DHT22;5251;52.112;8.606;2024-03-29T13:22:41;18.00;89.40
10411;DHT22;5251;52.112;8.606;2024-03-29T13:25:08;18.10;88.90
10411;DHT22;5251;52.112;8.606;2024-03-29T13:27:37;18.10;90.10
10411;DHT22;5251;52.112;8.606;2024-03-29T13:30:03;18.10;90.30
10411;DHT22;5251;52.112;8.606;2024-03-29T13:32:29;18.20;90.50
10411;DHT22;5251;52.112;8.606;2024-03-29T13:34:58;18.30;89.70
10411;DHT22;5251;52.112;8.606;2024-03-29T13:37:24;18.30;90.10
10411;DHT22;5251;52.112;8.606;2024-03-29T13:39:52;18.40;89.20
10411;DHT22;5251;52.112;8.606;2024-03-29T13:42:18;18.50;88.80
10411;DHT22;5251;52.112;8.606;2024-03-29T13:44:43;18.50;88.40
10411;DHT22;5251;52.112;8.606;2024-03-29T13:47:09;18.50;88.70
10411;DHT22;5251;52.112;8.606;2024-03-29T13:49:41;18.60;88.90
10411;DHT22;5251;52.112;8.606;2024-03-29T13:52:08;18.60;87.70
10411;DHT22;5251;52.112;8.606;2024-03-29T13:54:34;18.60;88.00
10411;DHT22;5251;52.112;8.606;2024-03-29T13:57:00;18.60;87.60
10411;DHT22;5251;52.112;8.606;2024-03-29T13:59:27;18.60;88.10
10411;DHT22;5251;52.112;8.606;2024-03-29T14:01:52;18.70;87.60
10411;DHT22;5251;52.112;8.606;2024-03-29T14:04:18;18.70;87.60
10411;DHT22;5251;52.112;8.606;2024-03-29T14:06:43;18.70;87.40
10411;DHT22;5251;52.112;8.606;2024-03-29T14:09:09;18.80;87.80
10411;DHT22;5251;52.112;8.606;2024-03-29T14:11:35;18.80;87.30
10411;DHT22;5251;52.112;8.606;2024-03-29T14:14:00;18.80;85.80
10411;DHT22;5251;52.112;8.606;2024-03-29T14:16:26;18.70;87.60
10411;DHT22;5251;52.112;8.606;2024-03-29T14:18:51;18.70;86.70
10411;DHT22;5251;52.112;8.606;2024-03-29T14:21:17;18.60;85.80
10411;DHT22;5251;52.112;8.606;2024-03-29T14:23:43;18.50;86.20
10411;DHT22;5251;52.112;8.606;2024-03-29T14:26:08;18.40;86.20
10411;DHT22;5251;52.112;8.606;2024-03-29T14:28:34;18.30;86.10
10411;DHT22;5251;52.112;8.606;2024-03-29T14:31:01;18.50;86.60
10411;DHT22;5251;52.112;8.606;2024-03-29T14:33:26;18.20;86.50
10411;DHT22;5251;52.112;8.606;2024-03-29T14:35:52;18.10;88.00
10411;DHT22;5251;52.112;8.606;2024-03-29T14:38:19;18.10;87.30
10411;DHT22;5251;52.112;8.606;2024-03-29T14:40:46;18.00;86.40
10411;DHT22;5251;52.112;8.606;2024-03-29T14:43:12;18.00;85.90
10411;DHT22;5251;52.112;8.606;2024-03-29T14:45:40;18.00;85.70
10411;DHT22;5251;52.112;8.606;2024-03-29T14:48:06;18.00;86.50
10411;DHT22;5251;52.112;8.606;2024-03-29T14:50:32;18.00;85.90
10411;DHT22;5251;52.112;8.606;2024-03-29T14:52:57;18.00;86.30
10411;DHT22;5251;52.112;8.606;2024-03-29T14:55:23;18.00;85.70
10411;DHT22;5251;52.112;8.606;2024-03-29T14:57:49;18.00;84.90
10411;DHT22;5251;52.112;8.606;2024-03-29T15:00:15;17.90;86.60
10411;DHT22;5251;52.112;8.606;2024-03-29T15:02:41;17.90;87.00
10411;DHT22;5251;52.112;8.606;2024-03-29T15:05:08;17.90;87.20
10411;DHT22;5251;52.112;8.606;2024-03-29T15:07:37;18.00;86.50
10411;DHT22;5251;52.112;8.606;2024-03-29T15:10:02;18.00;87.30
10411;DHT22;5251;52.112;8.606;2024-03-29T15:12:38;18.00;86.80
10411;DHT22;5251;52.112;8.606;2024-03-29T15:15:05;18.00;85.50
10411;DHT22;5251;52.112;8.606;2024-03-29T15:17:31;18.00;85.00
10411;DHT22;5251;52.112;8.606;2024-03-29T15:19:57;17.90;86.00
10411;DHT22;5251;52.112;8.606;2024-03-29T15:22:22;17.90;86.10
10411;DHT22;5251;52.112;8.606;2024-03-29T15:24:49;17.90;86.30
10411;DHT22;5251;52.112;8.606;2024-03-29T15:27:15;17.90;87.20
10411;DHT22;5251;52.112;8.606;2024-03-29T15:29:55;17.90;87.10
10411;DHT22;5251;52.112;8.606;2024-03-29T15:32:22;17.80;87.10
10411;DHT22;5251;52.112;8.606;2024-03-29T15:34:48;17.90;86.90
10411;DHT22;5251;52.112;8.606;2024-03-29T15:37:13;17.90;87.40
10411;DHT22;5251;52.112;8.606;2024-03-29T15:39:39;17.90;86.70
10411;DHT22;5251;52.112;8.606;2024-03-29T15:42:05;17.90;86.10
10411;DHT22;5251;52.112;8.606;2024-03-29T15:44:30;17.90;86.40
10411;DHT22;5251;52.112;8.606;2024-03-29T15:46:56;17.90;87.00
10411;DHT22;5251;52.112;8.606;2024-03-29T15:49:22;17.80;87.50